Time;durP1;ratioP1;P1;durP2;ratioP2;P2;SDS_P1;SDS_P2;PMS_P1;PMS_P2;Temp;Humidity;BMP_temperature;BMP_pressure;BME280_temperature;BME280_humidity;BME280_pressure;Samples;Min_cycle;Max_cycle;Signal;HPM_P1;HPM_P2
2023/03/05 00:00:43;;;;;;;12.48;3.88;;;23.90;40.20;;;;;;5071903;28;20498;-61
2023/03/05 00:03:10;;;;;;;13.60;4.05;;;23.90;40.30;;;;;;5074679;28;20106;-62
2023/03/05 00:05:36;;;;;;;13.45;3.58;;;23.90;40.20;;;;;;5072900;28;20444;-62
2023/03/05 00:08:03;;;;;;;14.77;3.92;;;23.80;41.10;;;;;;5067465;28;20085;-66
2023/03/05 00:10:29;;;;;;;10.63;3.80;;;23.70;40.80;;;;;;5069666;28;20057;-63
2023/03/05 00:12:55;;;;;;;8.15;3.30;;;23.70;41.20;;;;;;5072966;28;20060;-64
2023/03/05 00:15:22;;;;;;;13.00;3.90;;;23.80;41.50;;;;;;5072591;28;20066;-64
2023/03/05 00:17:48;;;;;;;9.02;3.78;;;23.70;41.50;;;;;;5071540;28;20086;-65
2023/03/05 00:20:15;;;;;;;13.35;3.55;;;23.50;40.70;;;;;;5071373;28;20181;-63
2023/03/05 00:22:41;;;;;;;11.68;3.85;;;23.50;41.40;;;;;;5072001;28;20073;-65
2023/03/05 00:25:08;;;;;;;10.52;3.20;;;23.40;41.60;;;;;;5071875;28;20152;-64
2023/03/05 00:27:34;;;;;;;10.40;2.60;;;23.40;42.10;;;;;;5076299;28;20075;-65
2023/03/05 00:30:01;;;;;;;8.43;2.55;;;23.50;42.20;;;;;;5078452;28;20586;-64
2023/03/05 00:32:27;;;;;;;8.27;2.65;;;23.30;42.10;;;;;;5077176;28;20082;-65
2023/03/05 00:34:54;;;;;;;8.77;2.25;;;23.40;42.50;;;;;;5080201;28;20414;-63
2023/03/05 00:37:20;;;;;;;10.75;2.60;;;23.30;42.40;;;;;;5061012;28;20076;-64
2023/03/05 00:39:46;;;;;;;8.13;2.30;;;23.20;42.40;;;;;;5058890;28;20093;-66
2023/03/05 00:42:13;;;;;;;9.27;1.95;;;23.10;42.40;;;;;;5078243;28;20165;-62
2023/03/05 00:44:39;;;;;;;9.07;2.00;;;22.80;39.70;;;;;;5078588;28;20126;-63
2023/03/05 00:47:06;;;;;;;14.73;2.30;;;22.90;38.40;;;;;;5079792;28;20073;-63
2023/03/05 00:49:32;;;;;;;7.22;1.90;;;22.80;39.40;;;;;;5080523;28;20149;-63
2023/03/05 00:51:58;;;;;;;10.57;2.00;;;22.70;39.00;;;;;;5077242;28;20063;-63
2023/03/05 00:54:25;;;;;;;14.55;2.13;;;22.60;38.30;;;;;;5079208;28;20140;-64
2023/03/05 00:56:51;;;;;;;10.48;3.30;;;22.50;37.00;;;;;;5079455;28;20106;-64
2023/03/05 00:59:18;;;;;;;12.77;5.28;;;22.50;34.70;;;;;;5078871;28;20188;-64
2023/03/05 01:01:44;;;;;;;12.90;3.03;;;22.50;34.20;;;;;;5079350;28;20078;-66
2023/03/05 01:04:10;;;;;;;9.55;2.25;;;22.40;32.50;;;;;;5079223;28;20164;-65
2023/03/05 01:06:41;;;;;;;31.10;5.93;;;22.20;32.80;;;;;;5078783;28;20071;-64
2023/03/05 01:09:07;;;;;;;30.35;10.68;;;22.10;33.10;;;;;;5078267;28;20082;-65
2023/03/05 01:11:34;;;;;;;6.90;2.10;;;22.00;32.40;;;;;;5075222;28;20070;-66
2023/03/05 01:14:00;;;;;;;8.18;1.90;;;22.00;32.40;;;;;;5077840;28;20071;-64
2023/03/05 01:16:27;;;;;;;9.90;1.70;;;21.80;33.00;;;;;;5075823;28;20092;-65
2023/03/05 01:18:53;;;;;;;7.40;1.77;;;21.70;33.30;;;;;;5079596;28;20113;-66
2023/03/05 01:21:20;;;;;;;9.43;2.13;;;21.50;34.40;;;;;;5079161;28;20103;-64
2023/03/05 01:23:47;;;;;;;10.88;1.92;;;21.50;35.40;;;;;;5079688;28;20070;-64
2023/03/05 01:26:13;;;;;;;9.98;1.67;;;21.40;36.50;;;;;;5079942;28;20144;-64
2023/03/05 01:28:40;;;;;;;8.10;1.90;;;21.30;36.60;;;;;;5077737;28;20110;-65
2023/03/05 01:31:08;;;;;;;3.65;1.70;;;21.20;37.20;;;;;;5078040;28;20091;-65
2023/03/05 01:33:35;;;;;;;14.82;2.33;;;21.10;37.40;;;;;;5077528;28;20166;-65
2023/03/05 01:36:01;;;;;;;10.13;2.72;;;21.00;37.80;;;;;;5077908;28;20482;-64
2023/03/05 01:38:28;;;;;;;11.93;2.17;;;20.90;37.70;;;;;;5076024;28;20072;-64
2023/03/05 01:40:54;;;;;;;10.18;1.58;;;20.80;38.10;;;;;;5075695;28;20155;-65
2023/03/05 01:43:27;;;;;;;9.18;2.00;;;20.70;38.90;;;;;;5056839;28;20071;-64
2023/03/05 01:46:12;;;;;;;10.18;2.30;;;20.60;39.30;;;;;;5072831;28;20125;-64
2023/03/05 01:48:44;;;;;;;4.25;1.75;;;20.50;39.80;;;;;;5073361;28;20067;-66
2023/03/05 01:51:11;;;;;;;7.85;2.13;;;20.40;40.10;;;;;;5073237;28;20070;-64
2023/03/05 01:53:38;;;;;;;5.68;1.80;;;20.30;40.60;;;;;;5076454;28;20068;-64
2023/03/05 01:56:05;;;;;;;9.48;2.00;;;20.20;41.20;;;;;;5073236;28;20135;-65
2023/03/05 01:58:32;;;;;;;5.80;1.83;;;20.00;41.80;;;;;;5073846;28;20150;-63
2023/03/05 02:00:58;;;;;;;8.30;2.20;;;20.00;41.80;;;;;;5075947;28;20095;-64
2023/03/05 02:03:25;;;;;;;8.02;2.00;;;19.90;41.90;;;;;;5074700;28;20659;-64
2023/03/05 02:05:52;;;;;;;13.80;2.67;;;19.80;42.50;;;;;;5077456;28;20090;-65
2023/03/05 02:08:21;;;;;;;29.95;10.70;;;19.70;43.10;;;;;;5074731;28;20098;-63
2023/03/05 02:10:52;;;;;;;19.13;7.47;;;19.70;42.70;;;;;;5075316;28;20078;-65
2023/03/05 02:13:22;;;;;;;24.98;9.52;;;19.70;42.70;;;;;;5072446;28;20070;-65
2023/03/05 02:15:49;;;;;;;23.98;9.40;;;19.60;42.80;;;;;;5073844;28;20075;-64
2023/03/05 02:18:17;;;;;;;12.30;3.00;;;19.50;43.30;;;;;;5072649;28;20096;-63
2023/03/05 02:21:05;;;;;;;8.90;2.00;;;19.50;43.60;;;;;;5074031;28;20198;-64
2023/03/05 02:23:37;;;;;;;19.25;3.00;;;19.50;42.80;;;;;;5071884;28;20083;-65
2023/03/05 02:26:06;;;;;;;9.07;2.53;;;19.40;42.40;;;;;;5071373;28;20102;-63
2023/03/05 02:28:39;;;;;;;7.28;2.10;;;19.30;42.00;;;;;;5073831;28;20064;-63
2023/03/05 02:31:25;;;;;;;5.20;1.85;;;19.40;42.10;;;;;;5074242;28;20095;-62
2023/03/05 02:33:52;;;;;;;6.93;2.00;;;19.30;42.50;;;;;;5073922;28;20092;-64
2023/03/05 02:36:19;;;;;;;4.75;2.10;;;19.30;42.90;;;;;;5071919;28;20244;-64
2023/03/05 02:38:46;;;;;;;7.22;1.67;;;19.30;43.50;;;;;;5074469;28;20075;-65
2023/03/05 02:41:13;;;;;;;6.95;1.77;;;19.20;43.90;;;;;;5072496;28;20127;-64
2023/03/05 02:43:39;;;;;;;12.88;2.35;;;19.00;43.50;;;;;;5075753;28;20068;-65
2023/03/05 02:46:06;;;;;;;11.90;2.80;;;19.00;43.70;;;;;;5073300;28;20087;-63
2023/03/05 02:48:32;;;;;;;10.18;2.65;;;18.90;43.70;;;;;;5074696;28;20072;-63
2023/03/05 02:51:00;;;;;;;7.38;2.80;;;18.80;44.00;;;;;;5072514;28;20064;-65
2023/03/05 02:53:26;;;;;;;10.02;2.72;;;18.70;44.40;;;;;;5073299;28;20071;-64
2023/03/05 02:55:53;;;;;;;10.15;2.83;;;18.60;44.80;;;;;;5073798;28;20591;-65
2023/03/05 02:58:19;;;;;;;14.05;3.50;;;18.50;45.40;;;;;;5072787;28;20123;-62
2023/03/05 03:00:46;;;;;;;19.92;3.50;;;18.50;45.40;;;;;;5073023;28;20074;-62
2023/03/05 03:03:12;;;;;;;18.27;5.38;;;18.50;45.60;;;;;;5072531;28;20118;-64
2023/03/05 03:05:39;;;;;;;22.27;5.70;;;18.50;46.00;;;;;;5070011;28;20115;-65
2023/03/05 03:08:06;;;;;;;21.80;5.30;;;18.50;46.10;;;;;;5076101;28;20587;-62
2023/03/05 03:10:33;;;;;;;18.85;5.70;;;18.50;46.90;;;;;;5073294;28;20155;-64
2023/03/05 03:12:59;;;;;;;21.40;7.72;;;18.40;46.10;;;;;;5071632;28;20581;-64
2023/03/05 03:15:26;;;;;;;25.05;8.02;;;18.20;46.30;;;;;;5072606;28;20071;-64
2023/03/05 03:17:53;;;;;;;17.02;7.55;;;18.20;47.00;;;;;;5070690;28;20094;-64
2023/03/05 03:20:19;;;;;;;17.67;7.22;;;18.00;47.20;;;;;;5067231;28;20071;-63
2023/03/05 03:22:46;;;;;;;17.63;6.50;;;18.00;47.50;;;;;;5071260;28;20083;-63
2023/03/05 03:25:19;;;;;;;19.15;6.20;;;17.90;47.90;;;;;;5070223;28;20146;-65
2023/03/05 03:27:46;;;;;;;14.27;5.43;;;17.90;47.90;;;;;;5071923;28;20110;-64
2023/03/05 03:30:13;;;;;;;18.40;7.78;;;17.80;47.70;;;;;;5074194;28;20110;-64
2023/03/05 03:32:40;;;;;;;19.75;6.32;;;17.90;47.80;;;;;;5070797;28;20418;-64
2023/03/05 03:35:07;;;;;;;18.15;6.05;;;17.80;48.00;;;;;;5071887;28;20110;-64
2023/03/05 03:37:33;;;;;;;11.45;4.88;;;17.80;48.30;;;;;;5072620;28;20068;-64
2023/03/05 03:40:00;;;;;;;20.15;4.97;;;17.60;48.50;;;;;;5073719;28;20070;-63
2023/03/05 03:42:26;;;;;;;13.25;4.60;;;17.60;48.70;;;;;;5073637;28;20171;-64
2023/03/05 03:44:52;;;;;;;13.38;5.10;;;17.60;49.10;;;;;;5072112;28;20084;-65
2023/03/05 03:47:19;;;;;;;18.40;4.15;;;17.60;49.30;;;;;;5071710;28;20122;-61
2023/03/05 03:49:45;;;;;;;16.88;4.13;;;17.50;49.50;;;;;;5071891;28;20104;-64
2023/03/05 03:52:12;;;;;;;12.85;4.30;;;17.50;50.60;;;;;;5070676;28;20074;-65
2023/03/05 03:54:38;;;;;;;15.38;4.30;;;17.30;51.00;;;;;;5069835;28;20076;-63
2023/03/05 03:57:05;;;;;;;15.18;3.95;;;17.20;51.80;;;;;;5072457;28;20068;-65
2023/03/05 03:59:31;;;;;;;22.67;4.60;;;17.20;52.20;;;;;;5073157;28;20537;-64
2023/03/05 04:01:58;;;;;;;14.27;4.20;;;17.20;52.30;;;;;;5070059;28;20072;-63
2023/03/05 04:04:25;;;;;;;17.50;4.18;;;17.20;52.60;;;;;;5072380;28;20104;-64
2023/03/05 04:06:51;;;;;;;13.15;3.40;;;17.10;52.70;;;;;;5072158;28;20071;-64
2023/03/05 04:09:18;;;;;;;19.63;4.57;;;17.10;53.40;;;;;;5073166;28;20092;-63
2023/03/05 04:11:44;;;;;;;19.48;3.90;;;17.00;53.80;;;;;;5072795;28;20460;-60
2023/03/05 04:14:10;;;;;;;15.05;4.22;;;17.00;54.20;;;;;;5070320;28;20086;-64
2023/03/05 04:16:37;;;;;;;17.17;4.30;;;16.90;54.40;;;;;;5054769;28;20175;-62
2023/03/05 04:19:03;;;;;;;13.20;4.78;;;16.80;54.40;;;;;;5070468;28;20110;-63
2023/03/05 04:21:30;;;;;;;12.90;4.05;;;16.80;54.80;;;;;;5072761;28;20598;-61
2023/03/05 04:23:56;;;;;;;14.45;3.65;;;16.70;54.50;;;;;;5070929;28;20070;-64
2023/03/05 04:26:23;;;;;;;10.55;3.03;;;16.70;54.70;;;;;;5070666;28;20087;-64
2023/03/05 04:28:49;;;;;;;10.60;3.40;;;16.80;55.40;;;;;;5071718;28;20129;-64
2023/03/05 04:31:16;;;;;;;17.48;4.05;;;16.60;55.30;;;;;;5071239;28;20119;-64
2023/03/05 04:33:42;;;;;;;11.25;3.65;;;16.60;55.40;;;;;;5071334;28;20533;-63
2023/03/05 04:36:09;;;;;;;8.90;3.72;;;16.50;55.40;;;;;;5068754;28;20486;-63
2023/03/05 04:38:35;;;;;;;16.02;3.70;;;16.50;55.50;;;;;;5069435;28;20086;-63
2023/03/05 04:41:01;;;;;;;11.50;3.67;;;16.40;55.60;;;;;;5071657;28;20147;-65
2023/03/05 04:43:28;;;;;;;19.30;4.45;;;16.40;55.90;;;;;;5069087;28;20084;-64
2023/03/05 04:45:55;;;;;;;9.55;3.35;;;16.20;56.50;;;;;;5070022;28;20087;-63
2023/03/05 04:48:21;;;;;;;15.35;3.92;;;16.20;56.10;;;;;;5069529;28;20076;-63
2023/03/05 04:50:47;;;;;;;14.25;3.65;;;16.20;56.00;;;;;;5067806;28;20491;-64
2023/03/05 04:53:14;;;;;;;12.57;3.55;;;16.10;56.20;;;;;;5068861;28;20094;-63
2023/03/05 04:55:40;;;;;;;15.10;3.92;;;16.10;56.40;;;;;;5069637;28;20523;-63
2023/03/05 04:58:07;;;;;;;18.38;3.90;;;16.00;56.30;;;;;;5068920;28;20082;-66
2023/03/05 05:00:33;;;;;;;14.35;3.75;;;16.00;56.10;;;;;;5067653;28;20102;-62
2023/03/05 05:02:59;;;;;;;14.50;3.80;;;16.00;56.30;;;;;;5068490;28;20112;-63
2023/03/05 05:05:29;;;;;;;26.70;8.52;;;15.90;56.30;;;;;;5068636;28;20091;-63
2023/03/05 05:07:57;;;;;;;14.98;4.20;;;16.00;56.60;;;;;;5065385;28;20087;-64
2023/03/05 05:10:24;;;;;;;17.90;4.50;;;15.90;56.30;;;;;;5067842;28;20133;-63
2023/03/05 05:12:51;;;;;;;21.45;4.93;;;15.90;56.30;;;;;;5068267;28;20089;-65
2023/03/05 05:15:17;;;;;;;18.15;4.35;;;15.80;56.20;;;;;;5070482;28;20060;-64
2023/03/05 05:17:45;;;;;;;16.02;4.35;;;15.80;56.40;;;;;;5069497;28;20436;-66
2023/03/05 05:20:13;;;;;;;13.98;5.35;;;15.70;56.20;;;;;;5072022;28;20100;-64
2023/03/05 05:22:39;;;;;;;15.60;5.03;;;15.70;56.50;;;;;;5071138;28;20112;-65
2023/03/05 05:25:06;;;;;;;17.33;5.00;;;15.60;56.70;;;;;;5074081;28;20433;-64
2023/03/05 05:27:33;;;;;;;17.45;4.90;;;15.60;56.90;;;;;;5072070;28;20537;-66
2023/03/05 05:29:59;;;;;;;20.98;4.50;;;15.60;57.00;;;;;;5075366;28;20122;-67
2023/03/05 05:32:26;;;;;;;19.30;4.15;;;15.50;57.20;;;;;;5074329;28;20076;-63
2023/03/05 05:34:56;;;;;;;18.10;3.88;;;15.50;57.60;;;;;;5075515;28;20100;-63
2023/03/05 05:37:24;;;;;;;19.65;4.78;;;15.50;57.50;;;;;;5073135;28;20068;-63
2023/03/05 05:39:51;;;;;;;16.15;4.63;;;15.50;57.70;;;;;;5075206;28;20215;-63
2023/03/05 05:42:19;;;;;;;25.92;4.75;;;15.50;58.10;;;;;;5074453;28;20071;-65
2023/03/05 05:44:46;;;;;;;19.55;4.45;;;15.50;58.10;;;;;;5072545;28;20096;-63
2023/03/05 05:47:14;;;;;;;11.85;3.50;;;15.50;57.80;;;;;;5074804;28;20457;-64
2023/03/05 05:49:40;;;;;;;26.90;11.75;;;15.40;58.50;;;;;;5073132;28;20078;-64
2023/03/05 05:52:07;;;;;;;12.82;4.30;;;15.40;58.40;;;;;;5076376;28;20091;-64
2023/03/05 05:54:33;;;;;;;29.00;12.07;;;15.30;58.60;;;;;;5072750;28;20091;-64
2023/03/05 05:57:00;;;;;;;22.25;4.05;;;15.30;58.50;;;;;;5074112;28;20068;-64
2023/03/05 05:59:26;;;;;;;18.58;4.88;;;15.30;58.50;;;;;;5074335;28;20554;-63
2023/03/05 06:01:52;;;;;;;;;;;15.30;58.80;;;;;;5076768;28;20091;-62
2023/03/05 06:04:18;;;;;;;17.88;4.78;;;15.20;59.10;;;;;;5074273;28;19990;-63
2023/03/05 06:06:45;;;;;;;18.10;4.55;;;15.20;59.20;;;;;;5073489;28;20083;-64
2023/03/05 06:09:11;;;;;;;13.95;3.88;;;15.20;59.20;;;;;;5074827;28;20145;-63
2023/03/05 06:11:38;;;;;;;16.05;3.72;;;15.10;59.10;;;;;;5075608;28;20543;-63
2023/03/05 06:14:06;;;;;;;;;;;15.10;59.60;;;;;;5073890;28;20100;-63
2023/03/05 06:16:32;;;;;;;40.05;5.28;;;15.10;59.80;;;;;;5073961;28;20431;-64
2023/03/05 06:18:59;;;;;;;;;;;15.10;59.80;;;;;;5073918;28;20150;-65
2023/03/05 06:21:25;;;;;;;17.92;6.90;;;15.10;60.30;;;;;;5073405;28;19982;-65
2023/03/05 06:23:51;;;;;;;;;;;15.00;60.60;;;;;;5074711;28;20072;-65
2023/03/05 06:26:19;;;;;;;16.90;4.65;;;15.00;61.10;;;;;;5074393;28;19971;-65
2023/03/05 06:28:46;;;;;;;14.85;4.30;;;14.80;61.40;;;;;;5071272;28;20079;-64
2023/03/05 06:31:20;;;;;;;;;;;14.80;62.30;;;;;;5074243;28;20063;-65
2023/03/05 06:33:48;;;;;;;18.08;5.07;;;14.90;61.90;;;;;;5072993;28;20050;-64
2023/03/05 06:36:16;;;;;;;14.30;4.63;;;14.80;62.00;;;;;;5075848;28;20097;-65
2023/03/05 06:38:43;;;;;;;19.33;5.53;;;14.80;61.90;;;;;;5071527;28;20533;-62
2023/03/05 06:41:12;;;;;;;15.82;4.93;;;14.80;62.70;;;;;;5074682;28;20080;-64
2023/03/05 06:43:42;;;;;;;16.60;6.72;;;14.80;62.50;;;;;;5075004;28;20595;-66
2023/03/05 06:46:15;;;;;;;17.60;5.88;;;14.80;63.30;;;;;;5056045;28;20153;-64
2023/03/05 06:48:42;;;;;;;23.00;4.72;;;14.70;62.10;;;;;;5072745;28;20076;-63
2023/03/05 06:51:18;;;;;;;20.73;4.93;;;14.70;62.30;;;;;;5073096;28;20428;-64
2023/03/05 06:53:45;;;;;;;28.58;4.93;;;14.70;62.20;;;;;;5072687;28;20109;-64
2023/03/05 06:56:12;;;;;;;21.83;5.05;;;14.70;62.00;;;;;;5074266;28;20425;-64
2023/03/05 06:58:44;;;;;;;28.10;4.85;;;14.70;61.70;;;;;;5072734;28;20122;-62
2023/03/05 07:01:11;;;;;;;19.10;4.80;;;14.60;61.40;;;;;;5074900;28;20076;-63
2023/03/05 07:03:38;;;;;;;26.95;5.03;;;14.50;61.20;;;;;;5072176;28;20232;-62
2023/03/05 07:06:06;;;;;;;23.08;5.10;;;14.40;61.30;;;;;;5070876;28;20171;-63
2023/03/05 07:08:33;;;;;;;21.75;4.38;;;14.40;62.10;;;;;;5073550;28;20594;-64
2023/03/05 07:11:00;;;;;;;25.33;4.25;;;14.40;61.50;;;;;;5073291;28;20123;-63
2023/03/05 07:13:27;;;;;;;24.77;4.43;;;14.30;61.70;;;;;;5072891;28;20212;-64
2023/03/05 07:15:54;;;;;;;28.15;4.22;;;14.30;62.00;;;;;;5074122;28;20163;-64
2023/03/05 07:18:20;;;;;;;26.30;4.55;;;14.30;62.20;;;;;;5074857;28;20068;-63
2023/03/05 07:20:46;;;;;;;;;;;14.20;61.60;;;;;;5072334;28;20087;-65
2023/03/05 07:23:13;;;;;;;33.85;4.25;;;14.20;62.40;;;;;;5073155;28;19979;-65
2023/03/05 07:25:39;;;;;;;;;;;14.20;62.60;;;;;;5071053;28;20080;-63
2023/03/05 07:28:06;;;;;;;29.35;5.07;;;14.20;62.60;;;;;;5072092;28;19959;-64
2023/03/05 07:30:35;;;;;;;55.42;5.80;;;14.20;62.40;;;;;;5074408;28;20088;-66
2023/03/05 07:33:02;;;;;;;41.70;6.20;;;14.20;63.00;;;;;;5070871;28;20133;-64
2023/03/05 07:35:28;;;;;;;42.53;5.15;;;14.10;62.30;;;;;;5072722;28;20432;-65
2023/03/05 07:37:54;;;;;;;;;;;14.20;62.60;;;;;;5072032;28;20120;-65
2023/03/05 07:40:21;;;;;;;38.20;4.47;;;14.10;62.40;;;;;;5072534;28;19968;-67
2023/03/05 07:42:47;;;;;;;32.40;4.00;;;13.90;62.50;;;;;;5072391;28;20084;-67
2023/03/05 07:45:13;;;;;;;;;;;13.80;63.10;;;;;;5073472;28;20115;-64
2023/03/05 07:47:40;;;;;;;83.28;6.05;;;13.80;63.60;;;;;;5073195;28;20013;-65
2023/03/05 07:50:06;;;;;;;;;;;13.90;63.60;;;;;;5054841;28;20068;-65
2023/03/05 07:52:32;;;;;;;32.22;4.25;;;13.90;64.00;;;;;;5071728;28;20009;-63
2023/03/05 07:54:58;;;;;;;;;;;13.90;63.20;;;;;;5072011;28;20072;-65
2023/03/05 07:57:25;;;;;;;16.55;3.13;;;13.90;64.00;;;;;;5071277;28;19956;-63
2023/03/05 07:59:51;;;;;;;;;;;13.80;64.10;;;;;;5073945;28;20421;-64
2023/03/05 08:02:18;;;;;;;16.75;3.60;;;13.80;63.80;;;;;;5074612;28;19965;-65
2023/03/05 08:04:44;;;;;;;15.60;3.42;;;13.80;64.70;;;;;;5072157;28;20114;-64
2023/03/05 08:07:13;;;;;;;;;;;13.80;64.20;;;;;;5068297;28;20072;-65
2023/03/05 08:09:41;;;;;;;19.50;4.45;;;13.70;64.20;;;;;;5071710;28;20063;-65
2023/03/05 08:12:09;;;;;;;20.05;4.72;;;13.60;64.70;;;;;;5070788;28;20425;-64
2023/03/05 08:14:36;;;;;;;20.13;4.30;;;13.60;64.90;;;;;;5069573;28;20087;-64
2023/03/05 08:17:04;;;;;;;16.88;4.00;;;13.60;64.80;;;;;;5071826;28;21380;-66
2023/03/05 08:19:31;;;;;;;17.83;4.13;;;13.60;65.50;;;;;;5073390;28;20142;-63
2023/03/05 08:21:57;;;;;;;19.67;4.10;;;13.60;64.90;;;;;;5072000;28;20561;-65
2023/03/05 08:24:28;;;;;;;;;;;13.60;64.80;;;;;;5069203;28;20072;-64
2023/03/05 08:26:56;;;;;;;13.35;3.50;;;13.50;65.20;;;;;;5073297;28;19952;-63
2023/03/05 08:29:22;;;;;;;16.88;4.13;;;13.50;65.40;;;;;;5073916;28;20083;-64
2023/03/05 08:31:52;;;;;;;14.88;3.40;;;13.40;64.80;;;;;;5074221;28;20068;-65
2023/03/05 08:34:20;;;;;;;21.02;3.45;;;13.40;66.00;;;;;;5071384;28;20072;-63
2023/03/05 08:36:47;;;;;;;17.73;3.72;;;13.40;66.10;;;;;;5070991;28;20075;-65
2023/03/05 08:39:14;;;;;;;20.50;4.00;;;13.40;65.80;;;;;;5071801;28;20068;-64
2023/03/05 08:41:40;;;;;;;15.23;3.72;;;13.40;65.80;;;;;;5071523;28;20107;-65
2023/03/05 08:44:07;;;;;;;21.60;4.22;;;13.30;65.40;;;;;;5072233;28;20076;-63
2023/03/05 08:46:33;;;;;;;;;;;13.30;65.90;;;;;;5075203;28;20094;-65
2023/03/05 08:49:00;;;;;;;15.30;3.83;;;13.20;65.80;;;;;;5077051;28;19964;-65
2023/03/05 08:51:27;;;;;;;23.27;4.45;;;13.20;65.90;;;;;;5076360;28;20632;-63
2023/03/05 08:53:55;;;;;;;22.55;4.25;;;13.20;66.30;;;;;;5075941;28;20432;-63
2023/03/05 08:56:21;;;;;;;23.30;4.15;;;13.20;66.80;;;;;;5076086;28;20075;-65
2023/03/05 08:58:48;;;;;;;17.08;4.30;;;13.10;66.80;;;;;;5074201;28;20080;-65
2023/03/05 09:01:14;;;;;;;20.55;4.25;;;13.00;67.00;;;;;;5077539;28;20080;-63
2023/03/05 09:03:41;;;;;;;;;;;13.00;67.00;;;;;;5075038;28;20111;-64
2023/03/05 09:06:11;;;;;;;13.88;3.35;;;13.00;67.20;;;;;;5075998;28;19987;-64
2023/03/05 09:08:38;;;;;;;11.52;3.08;;;13.00;66.80;;;;;;5074735;28;20498;-65
2023/03/05 09:11:07;;;;;;;12.52;4.10;;;12.90;66.60;;;;;;5074965;28;20092;-65
2023/03/05 09:13:37;;;;;;;16.20;3.08;;;12.90;66.20;;;;;;5075020;28;20080;-64
2023/03/05 09:16:13;;;;;;;13.48;3.30;;;12.80;65.90;;;;;;5074997;28;20153;-63
2023/03/05 09:18:40;;;;;;;18.27;3.85;;;12.80;66.00;;;;;;5075120;28;20480;-64
2023/03/05 09:21:08;;;;;;;15.50;3.05;;;12.80;65.30;;;;;;5075338;28;20163;-64
2023/03/05 09:23:34;;;;;;;12.50;2.97;;;12.80;65.60;;;;;;5075927;28;20065;-64
2023/03/05 09:26:01;;;;;;;10.30;3.40;;;12.70;64.80;;;;;;5074728;28;20088;-63
2023/03/05 09:28:27;;;;;;;;;;;12.70;64.90;;;;;;5076603;28;20073;-63
2023/03/05 09:30:54;;;;;;;11.57;3.28;;;12.60;65.00;;;;;;5074154;28;19956;-63
2023/03/05 09:33:20;;;;;;;13.95;3.80;;;12.60;64.80;;;;;;5072742;28;20072;-65
2023/03/05 09:35:47;;;;;;;;;;;12.40;65.10;;;;;;5076433;28;20078;-65
2023/03/05 09:38:14;;;;;;;16.27;4.07;;;12.40;64.80;;;;;;5076758;28;19978;-65
2023/03/05 09:41:02;;;;;;;13.30;3.92;;;12.40;65.90;;;;;;5075828;28;20556;-64
2023/03/05 09:43:58;;;;;;;11.57;3.28;;;12.40;65.10;;;;;;5073962;28;20083;-64
2023/03/05 09:46:46;;;;;;;22.30;3.90;;;12.40;65.20;;;;;;5069622;28;20172;-65
2023/03/05 09:49:43;;;;;;;17.42;4.18;;;12.40;65.10;;;;;;5076687;28;20469;-64
2023/03/05 09:52:33;;;;;;;12.07;3.42;;;12.40;65.80;;;;;;5051780;28;20105;-65
2023/03/05 09:55:01;;;;;;;11.13;3.80;;;12.30;65.20;;;;;;5073191;28;20091;-64
2023/03/05 09:57:51;;;;;;;11.48;3.47;;;12.40;65.60;;;;;;5073018;28;20092;-66
2023/03/05 10:00:44;;;;;;;14.25;3.90;;;12.40;65.10;;;;;;5074746;28;21526;-64
2023/03/05 10:03:31;;;;;;;14.70;3.80;;;12.30;65.00;;;;;;5074217;28;20506;-66
2023/03/05 10:06:03;;;;;;;13.77;3.72;;;12.20;65.40;;;;;;5070629;28;20084;-65
2023/03/05 10:08:41;;;;;;;18.73;4.32;;;12.20;65.60;;;;;;5073388;28;20141;-63
2023/03/05 10:11:19;;;;;;;18.23;4.05;;;12.10;65.90;;;;;;5074797;28;21686;-64
2023/03/05 10:13:46;;;;;;;16.23;3.65;;;12.10;66.70;;;;;;5074580;28;20111;-65
2023/03/05 10:16:18;;;;;;;18.50;4.55;;;12.00;66.70;;;;;;5073883;28;20538;-63
2023/03/05 10:19:01;;;;;;;22.95;4.95;;;12.00;66.80;;;;;;5075652;28;20145;-63
2023/03/05 10:21:44;;;;;;;14.13;4.25;;;12.00;67.40;;;;;;5073261;28;20538;-64
2023/03/05 10:24:33;;;;;;;13.02;3.58;;;12.00;67.80;;;;;;5071989;28;20084;-64
2023/03/05 10:27:07;;;;;;;12.27;3.65;;;11.90;68.00;;;;;;5073972;28;20080;-63
2023/03/05 10:29:50;;;;;;;15.25;4.45;;;11.90;67.60;;;;;;5072909;28;20065;-63
2023/03/05 10:32:40;;;;;;;17.67;3.13;;;11.80;67.50;;;;;;5076025;28;20106;-64
2023/03/05 10:35:31;;;;;;;21.90;3.90;;;11.80;67.40;;;;;;5074002;28;20084;-63
2023/03/05 10:38:17;;;;;;;17.58;4.10;;;11.80;67.70;;;;;;5073666;28;20080;-65
2023/03/05 10:40:50;;;;;;;13.77;3.53;;;11.80;67.50;;;;;;5073016;28;20126;-63
2023/03/05 10:44:09;;;;;;;19.48;4.20;;;11.80;67.90;;;;;;5073102;28;20076;-63
2023/03/05 10:46:38;;;;;;;17.17;3.65;;;11.80;67.50;;;;;;4950335;29;20106;-63
2023/03/05 10:49:26;;;;;;;19.05;3.40;;;11.80;67.00;;;;;;4946898;29;20084;-64
2023/03/05 10:52:12;;;;;;;15.20;4.18;;;11.80;66.70;;;;;;4949539;29;20088;-65
2023/03/05 10:54:41;;;;;;;22.48;4.70;;;11.80;67.00;;;;;;4950264;29;20075;-63
2023/03/05 10:57:31;;;;;;;17.38;4.45;;;11.70;67.00;;;;;;4950637;29;20580;-65
2023/03/05 11:00:21;;;;;;;18.65;4.90;;;11.70;67.40;;;;;;4950116;29;20552;-63
2023/03/05 11:03:00;;;;;;;15.68;4.13;;;11.70;67.40;;;;;;4950822;29;20112;-64
2023/03/05 11:05:39;;;;;;;24.95;4.95;;;11.70;68.20;;;;;;4950688;29;20107;-64
2023/03/05 11:08:34;;;;;;;16.60;4.63;;;11.70;68.20;;;;;;4950244;29;20098;-65
2023/03/05 11:11:11;;;;;;;20.63;4.28;;;11.70;68.70;;;;;;4948689;28;20075;-65
2023/03/05 11:13:55;;;;;;;21.70;4.22;;;11.70;68.90;;;;;;4950602;29;20086;-65
2023/03/05 11:16:34;;;;;;;20.15;4.47;;;11.60;68.90;;;;;;4949756;29;20469;-64
2023/03/05 11:19:28;;;;;;;22.20;4.32;;;11.60;69.90;;;;;;4949306;29;20175;-66
2023/03/05 11:22:23;;;;;;;28.60;4.55;;;11.50;70.50;;;;;;4996147;28;20081;-64
2023/03/05 11:25:17;;;;;;;15.27;3.78;;;11.50;71.40;;;;;;5071521;28;20085;-65
2023/03/05 11:27:54;;;;;;;16.60;4.25;;;11.50;72.00;;;;;;5070825;28;20076;-63
2023/03/05 11:30:31;;;;;;;23.60;4.80;;;11.40;72.90;;;;;;5071497;28;20071;-63
2023/03/05 11:33:26;;;;;;;18.40;4.15;;;11.30;73.20;;;;;;5072887;28;20092;-63
2023/03/05 11:36:11;;;;;;;20.67;3.92;;;11.30;73.90;;;;;;5016449;28;20202;-63
2023/03/05 11:38:51;;;;;;;14.85;4.28;;;11.30;73.70;;;;;;5013421;28;20071;-63
2023/03/05 11:41:23;;;;;;;24.00;4.30;;;11.30;74.30;;;;;;5016497;28;20504;-64
2023/03/05 11:43:52;;;;;;;16.08;4.60;;;11.30;74.50;;;;;;5020328;28;20135;-64
2023/03/05 11:46:21;;;;;;;16.48;4.40;;;11.40;74.20;;;;;;5014516;28;20105;-66
2023/03/05 11:48:47;;;;;;;15.98;4.45;;;11.40;74.40;;;;;;5009214;28;20081;-66
2023/03/05 11:51:31;;;;;;;18.52;4.53;;;11.40;74.50;;;;;;5010993;28;20528;-65
2023/03/05 11:54:05;;;;;;;12.90;4.60;;;11.50;74.60;;;;;;5009868;28;20585;-64
2023/03/05 11:56:35;;;;;;;13.32;4.32;;;11.50;75.00;;;;;;5012175;28;20077;-66
2023/03/05 11:59:06;;;;;;;19.40;4.75;;;11.40;75.30;;;;;;5012872;28;20085;-65
2023/03/05 12:01:40;;;;;;;23.45;5.57;;;11.40;75.50;;;;;;5016329;28;20193;-65
2023/03/05 12:04:07;;;;;;;18.38;5.70;;;11.30;75.60;;;;;;5000228;28;20124;-65
2023/03/05 12:06:42;;;;;;;16.30;4.93;;;11.30;76.10;;;;;;5015067;28;20440;-63
2023/03/05 12:09:15;;;;;;;18.27;4.75;;;11.30;76.40;;;;;;5010545;28;20155;-65
2023/03/05 12:11:42;;;;;;;18.90;5.35;;;11.30;76.10;;;;;;5031134;28;20080;-63
2023/03/05 12:14:44;;;;;;;16.63;5.70;;;11.30;75.70;;;;;;5073157;28;20445;-63
2023/03/05 12:17:21;;;;;;;18.70;5.35;;;11.30;76.00;;;;;;5065688;28;20088;-65
2023/03/05 12:20:26;;;;;;;20.67;5.43;;;11.30;75.70;;;;;;5052189;28;20115;-66
2023/03/05 12:22:55;;;;;;;19.08;5.03;;;11.30;76.50;;;;;;5070118;28;20076;-63
2023/03/05 12:25:31;;;;;;;20.88;6.20;;;11.10;76.80;;;;;;5071513;28;20510;-65
2023/03/05 12:27:58;;;;;;;18.50;4.97;;;11.10;77.20;;;;;;5069772;28;20075;-65
2023/03/05 12:30:33;;;;;;;21.73;5.65;;;11.10;77.30;;;;;;5072690;28;20162;-63
2023/03/05 12:33:01;;;;;;;25.88;5.90;;;11.10;77.70;;;;;;5073538;28;20088;-64
2023/03/05 12:35:39;;;;;;;20.25;5.70;;;11.20;76.80;;;;;;5072222;28;20183;-64
2023/03/05 12:38:18;;;;;;;21.00;4.80;;;11.20;76.70;;;;;;5071897;28;20159;-65
2023/03/05 12:40:46;;;;;;;14.40;4.70;;;11.10;77.10;;;;;;5071950;28;20089;-65
2023/03/05 12:43:31;;;;;;;19.98;5.13;;;11.10;77.20;;;;;;5071856;28;20165;-65
2023/03/05 12:46:27;;;;;;;22.38;5.75;;;11.00;78.10;;;;;;5072766;28;20593;-63
2023/03/05 12:48:54;;;;;;;21.67;5.05;;;10.90;78.00;;;;;;5071184;28;20076;-65
2023/03/05 12:51:37;;;;;;;;;;;11.00;77.60;;;;;;5074866;28;20125;-64
2023/03/05 12:54:22;;;;;;;21.05;4.88;;;11.00;78.00;;;;;;5070943;28;20052;-65
2023/03/05 12:56:49;;;;;;;19.73;5.15;;;11.00;78.10;;;;;;5073557;28;20075;-63
2023/03/05 12:59:20;;;;;;;14.57;4.82;;;10.90;78.50;;;;;;5070508;28;20097;-66